sensor_id;sensor_type;location;lat;lon;timestamp;temperature;humidity
24103;DHT22;12278;53.058;9.028;2023-02-16T00:02:50;4.60;99.90
24103;DHT22;12278;53.058;9.028;2023-02-16T00:06:52;4.60;99.90
24103;DHT22;12278;53.058;9.028;2023-02-16T00:10:53;4.60;99.90
24103;DHT22;12278;53.058;9.028;2023-02-16T00:15:17;4.60;99.90
24103;DHT22;12278;53.058;9.028;2023-02-16T00:19:27;4.60;99.90
24103;DHT22;12278;53.058;9.028;2023-02-16T00:23:31;4.50;99.90
24103;DHT22;12278;53.058;9.028;2023-02-16T00:27:31;4.40;99.90
24103;DHT22;12278;53.058;9.028;2023-02-16T00:31:32;4.40;99.90
24103;DHT22;12278;53.058;9.028;2023-02-16T00:35:35;4.40;99.90
24103;DHT22;12278;53.058;9.028;2023-02-16T00:39:41;4.40;99.90
24103;DHT22;12278;53.058;9.028;2023-02-16T00:43:42;4.40;99.90
24103;DHT22;12278;53.058;9.028;2023-02-16T00:47:43;4.30;99.90
24103;DHT22;12278;53.058;9.028;2023-02-16T00:51:46;4.30;99.90
24103;DHT22;12278;53.058;9.028;2023-02-16T00:55:47;4.30;99.90
24103;DHT22;12278;53.058;9.028;2023-02-16T00:59:57;4.30;99.90
24103;DHT22;12278;53.058;9.028;2023-02-16T01:04:04;4.20;99.90
24103;DHT22;12278;53.058;9.028;2023-02-16T01:08:13;4.30;99.90
24103;DHT22;12278;53.058;9.028;2023-02-16T01:12:33;4.20;99.90
24103;DHT22;12278;53.058;9.028;2023-02-16T01:16:40;4.20;99.90
24103;DHT22;12278;53.058;9.028;2023-02-16T01:20:41;4.30;99.90
24103;DHT22;12278;53.058;9.028;2023-02-16T01:24:41;4.30;99.90
24103;DHT22;12278;53.058;9.028;2023-02-16T01:28:43;4.30;99.90
24103;DHT22;12278;53.058;9.028;2023-02-16T01:32:44;4.30;99.90
24103;DHT22;12278;53.058;9.028;2023-02-16T01:36:55;4.10;99.90
24103;DHT22;12278;53.058;9.028;2023-02-16T01:45:12;4.10;99.90
24103;DHT22;12278;53.058;9.028;2023-02-16T01:49:17;4.00;99.90
24103;DHT22;12278;53.058;9.028;2023-02-16T01:53:36;4.00;99.90
24103;DHT22;12278;53.058;9.028;2023-02-16T01:57:45;4.00;99.90
24103;DHT22;12278;53.058;9.028;2023-02-16T02:01:51;4.10;99.90
24103;DHT22;12278;53.058;9.028;2023-02-16T02:05:56;4.00;99.90
24103;DHT22;12278;53.058;9.028;2023-02-16T02:10:09;4.00;99.90
24103;DHT22;12278;53.058;9.028;2023-02-16T02:14:17;4.00;99.90
24103;DHT22;12278;53.058;9.028;2023-02-16T02:18:19;3.90;99.90
24103;DHT22;12278;53.058;9.028;2023-02-16T02:22:58;3.90;99.90
24103;DHT22;12278;53.058;9.028;2023-02-16T02:27:25;3.90;99.90
24103;DHT22;12278;53.058;9.028;2023-02-16T02:40:14;3.80;99.90
24103;DHT22;12278;53.058;9.028;2023-02-16T02:44:20;3.70;99.90
24103;DHT22;12278;53.058;9.028;2023-02-16T02:48:22;3.70;99.90
24103;DHT22;12278;53.058;9.028;2023-02-16T02:52:22;3.70;99.90
24103;DHT22;12278;53.058;9.028;2023-02-16T02:56:23;3.50;99.90
24103;DHT22;12278;53.058;9.028;2023-02-16T03:00:44;3.70;99.90
24103;DHT22;12278;53.058;9.028;2023-02-16T03:04:47;3.60;99.90
24103;DHT22;12278;53.058;9.028;2023-02-16T03:08:57;3.60;99.90
24103;DHT22;12278;53.058;9.028;2023-02-16T03:13:01;3.60;99.90
24103;DHT22;12278;53.058;9.028;2023-02-16T03:17:16;3.70;99.90
24103;DHT22;12278;53.058;9.028;2023-02-16T03:21:35;3.70;99.90
24103;DHT22;12278;53.058;9.028;2023-02-16T03:26:01;3.60;99.90
24103;DHT22;12278;53.058;9.028;2023-02-16T03:30:21;3.70;99.90
24103;DHT22;12278;53.058;9.028;2023-02-16T03:34:24;3.80;99.90
24103;DHT22;12278;53.058;9.028;2023-02-16T03:38:25;3.70;99.90
24103;DHT22;12278;53.058;9.028;2023-02-16T03:42:25;3.70;99.90
24103;DHT22;12278;53.058;9.028;2023-02-16T03:46:26;3.60;99.90
24103;DHT22;12278;53.058;9.028;2023-02-16T03:50:27;3.60;99.90
24103;DHT22;12278;53.058;9.028;2023-02-16T03:54:27;3.70;99.90
24103;DHT22;12278;53.058;9.028;2023-02-16T03:58:28;3.60;99.90
24103;DHT22;12278;53.058;9.028;2023-02-16T04:02:28;3.60;99.90
24103;DHT22;12278;53.058;9.028;2023-02-16T04:06:29;3.60;99.90
24103;DHT22;12278;53.058;9.028;2023-02-16T04:10:30;3.60;99.90
24103;DHT22;12278;53.058;9.028;2023-02-16T04:14:33;3.60;99.90
24103;DHT22;12278;53.058;9.028;2023-02-16T04:18:34;3.60;99.90
24103;DHT22;12278;53.058;9.028;2023-02-16T04:22:35;3.60;99.90
24103;DHT22;12278;53.058;9.028;2023-02-16T04:26:35;3.60;99.90
24103;DHT22;12278;53.058;9.028;2023-02-16T04:30:36;3.70;99.90
24103;DHT22;12278;53.058;9.028;2023-02-16T04:34:37;3.70;99.90
24103;DHT22;12278;53.058;9.028;2023-02-16T04:38:37;3.70;99.90
24103;DHT22;12278;53.058;9.028;2023-02-16T04:42:41;3.70;99.90
24103;DHT22;12278;53.058;9.028;2023-02-16T04:46:42;3.60;99.90
24103;DHT22;12278;53.058;9.028;2023-02-16T04:50:43;3.60;99.90
24103;DHT22;12278;53.058;9.028;2023-02-16T04:54:44;3.60;99.90
24103;DHT22;12278;53.058;9.028;2023-02-16T04:58:44;3.60;99.90
24103;DHT22;12278;53.058;9.028;2023-02-16T05:02:45;3.60;99.90
24103;DHT22;12278;53.058;9.028;2023-02-16T05:06:46;3.60;99.90
24103;DHT22;12278;53.058;9.028;2023-02-16T05:10:47;3.60;99.90
24103;DHT22;12278;53.058;9.028;2023-02-16T05:15:10;3.50;99.90
24103;DHT22;12278;53.058;9.028;2023-02-16T05:19:11;3.40;99.90
24103;DHT22;12278;53.058;9.028;2023-02-16T05:23:12;3.50;99.90
24103;DHT22;12278;53.058;9.028;2023-02-16T05:27:24;3.50;99.90
24103;DHT22;12278;53.058;9.028;2023-02-16T05:31:26;3.60;99.90
24103;DHT22;12278;53.058;9.028;2023-02-16T05:35:27;3.60;99.90
24103;DHT22;12278;53.058;9.028;2023-02-16T05:39:27;3.60;99.90
24103;DHT22;12278;53.058;9.028;2023-02-16T05:43:28;3.60;99.90
24103;DHT22;12278;53.058;9.028;2023-02-16T05:47:29;3.60;99.90
24103;DHT22;12278;53.058;9.028;2023-02-16T05:51:29;3.60;99.90
24103;DHT22;12278;53.058;9.028;2023-02-16T05:55:33;3.70;99.90
24103;DHT22;12278;53.058;9.028;2023-02-16T05:59:34;3.70;99.90
24103;DHT22;12278;53.058;9.028;2023-02-16T06:03:34;3.80;99.90
24103;DHT22;12278;53.058;9.028;2023-02-16T06:07:35;3.80;99.90
24103;DHT22;12278;53.058;9.028;2023-02-16T06:11:36;3.80;99.90
24103;DHT22;12278;53.058;9.028;2023-02-16T06:15:37;3.80;99.90
24103;DHT22;12278;53.058;9.028;2023-02-16T06:19:38;3.90;99.90
24103;DHT22;12278;53.058;9.028;2023-02-16T06:23:38;3.80;99.90
24103;DHT22;12278;53.058;9.028;2023-02-16T06:27:39;3.80;99.90
24103;DHT22;12278;53.058;9.028;2023-02-16T06:31:39;3.90;99.90
24103;DHT22;12278;53.058;9.028;2023-02-16T06:35:42;3.90;99.90
24103;DHT22;12278;53.058;9.028;2023-02-16T06:39:43;3.90;99.90
24103;DHT22;12278;53.058;9.028;2023-02-16T06:43:52;3.90;99.90
24103;DHT22;12278;53.058;9.028;2023-02-16T06:47:53;3.90;99.90
24103;DHT22;12278;53.058;9.028;2023-02-16T06:51:58;4.00;99.90
24103;DHT22;12278;53.058;9.028;2023-02-16T06:55:58;4.00;99.90
24103;DHT22;12278;53.058;9.028;2023-02-16T06:59:59;4.10;99.90
24103;DHT22;12278;53.058;9.028;2023-02-16T07:03:59;4.30;99.90
24103;DHT22;12278;53.058;9.028;2023-02-16T07:08:01;4.30;99.90
24103;DHT22;12278;53.058;9.028;2023-02-16T07:12:02;4.30;99.90
24103;DHT22;12278;53.058;9.028;2023-02-16T07:16:04;4.30;99.90
24103;DHT22;12278;53.058;9.028;2023-02-16T07:20:06;4.40;99.90
24103;DHT22;12278;53.058;9.028;2023-02-16T07:24:07;4.50;99.90
24103;DHT22;12278;53.058;9.028;2023-02-16T07:28:10;4.50;99.90
24103;DHT22;12278;53.058;9.028;2023-02-16T07:32:18;4.50;99.90
24103;DHT22;12278;53.058;9.028;2023-02-16T07:36:18;4.60;99.90
24103;DHT22;12278;53.058;9.028;2023-02-16T07:40:20;4.70;99.90
24103;DHT22;12278;53.058;9.028;2023-02-16T07:44:22;4.70;99.90
24103;DHT22;12278;53.058;9.028;2023-02-16T07:48:22;4.80;99.90
24103;DHT22;12278;53.058;9.028;2023-02-16T07:52:23;4.80;99.90
24103;DHT22;12278;53.058;9.028;2023-02-16T07:56:31;4.90;99.90
24103;DHT22;12278;53.058;9.028;2023-02-16T08:00:32;4.90;99.90
24103;DHT22;12278;53.058;9.028;2023-02-16T08:04:33;4.90;99.90
24103;DHT22;12278;53.058;9.028;2023-02-16T08:08:36;5.00;99.90
24103;DHT22;12278;53.058;9.028;2023-02-16T08:12:36;5.10;99.90
24103;DHT22;12278;53.058;9.028;2023-02-16T08:16:37;5.20;99.90
24103;DHT22;12278;53.058;9.028;2023-02-16T08:20:38;5.40;99.90
24103;DHT22;12278;53.058;9.028;2023-02-16T08:24:38;5.50;99.90
24103;DHT22;12278;53.058;9.028;2023-02-16T08:28:39;5.60;99.90
24103;DHT22;12278;53.058;9.028;2023-02-16T08:32:45;5.80;99.90
24103;DHT22;12278;53.058;9.028;2023-02-16T08:36:54;5.90;99.90
24103;DHT22;12278;53.058;9.028;2023-02-16T08:40:56;6.00;99.90
24103;DHT22;12278;53.058;9.028;2023-02-16T08:44:56;6.00;99.90
24103;DHT22;12278;53.058;9.028;2023-02-16T08:48:59;6.20;99.90
24103;DHT22;12278;53.058;9.028;2023-02-16T08:53:00;6.20;99.90
24103;DHT22;12278;53.058;9.028;2023-02-16T08:57:01;6.30;99.90
24103;DHT22;12278;53.058;9.028;2023-02-16T09:01:06;6.40;99.90
24103;DHT22;12278;53.058;9.028;2023-02-16T09:05:07;6.50;99.90
24103;DHT22;12278;53.058;9.028;2023-02-16T09:09:08;6.60;99.90
24103;DHT22;12278;53.058;9.028;2023-02-16T09:13:10;6.60;99.90
24103;DHT22;12278;53.058;9.028;2023-02-16T09:17:14;6.60;99.90
24103;DHT22;12278;53.058;9.028;2023-02-16T09:21:17;6.80;99.90
24103;DHT22;12278;53.058;9.028;2023-02-16T09:25:19;6.80;99.90
24103;DHT22;12278;53.058;9.028;2023-02-16T09:29:19;7.00;99.90
24103;DHT22;12278;53.058;9.028;2023-02-16T09:33:21;7.10;99.90
24103;DHT22;12278;53.058;9.028;2023-02-16T09:37:22;7.30;99.90
24103;DHT22;12278;53.058;9.028;2023-02-16T09:41:42;7.30;99.90
24103;DHT22;12278;53.058;9.028;2023-02-16T09:45:50;7.30;99.90
24103;DHT22;12278;53.058;9.028;2023-02-16T09:49:52;7.40;99.90
24103;DHT22;12278;53.058;9.028;2023-02-16T09:54:01;7.60;99.90
24103;DHT22;12278;53.058;9.028;2023-02-16T09:58:13;7.70;99.90
24103;DHT22;12278;53.058;9.028;2023-02-16T10:15:43;8.40;99.90
24103;DHT22;12278;53.058;9.028;2023-02-16T10:19:46;8.40;99.90
24103;DHT22;12278;53.058;9.028;2023-02-16T10:23:51;8.70;99.90
24103;DHT22;12278;53.058;9.028;2023-02-16T10:32:33;9.30;99.90
24103;DHT22;12278;53.058;9.028;2023-02-16T10:41:11;9.00;99.90
24103;DHT22;12278;53.058;9.028;2023-02-16T10:45:30;8.90;99.90
24103;DHT22;12278;53.058;9.028;2023-02-16T10:49:34;8.90;99.90
24103;DHT22;12278;53.058;9.028;2023-02-16T10:53:55;8.70;99.90
24103;DHT22;12278;53.058;9.028;2023-02-16T10:57:59;8.80;99.90
24103;DHT22;12278;53.058;9.028;2023-02-16T11:06:31;8.80;99.90
24103;DHT22;12278;53.058;9.028;2023-02-16T11:10:51;8.90;99.90
24103;DHT22;12278;53.058;9.028;2023-02-16T11:15:02;9.00;99.90
24103;DHT22;12278;53.058;9.028;2023-02-16T11:19:17;9.10;99.90
24103;DHT22;12278;53.058;9.028;2023-02-16T11:23:30;9.30;99.90
24103;DHT22;12278;53.058;9.028;2023-02-16T11:27:31;9.30;99.90
24103;DHT22;12278;53.058;9.028;2023-02-16T11:31:38;9.30;99.90
24103;DHT22;12278;53.058;9.028;2023-02-16T11:35:41;9.20;99.90
24103;DHT22;12278;53.058;9.028;2023-02-16T11:39:58;9.20;99.90
24103;DHT22;12278;53.058;9.028;2023-02-16T11:44:00;9.30;99.90
24103;DHT22;12278;53.058;9.028;2023-02-16T11:48:06;9.40;99.90
24103;DHT22;12278;53.058;9.028;2023-02-16T11:52:27;9.40;99.90
24103;DHT22;12278;53.058;9.028;2023-02-16T11:56:32;9.40;99.90
24103;DHT22;12278;53.058;9.028;2023-02-16T12:00:33;9.50;99.90
24103;DHT22;12278;53.058;9.028;2023-02-16T12:05:14;9.60;99.90
24103;DHT22;12278;53.058;9.028;2023-02-16T12:26:49;9.10;99.90
24103;DHT22;12278;53.058;9.028;2023-02-16T12:31:13;9.20;99.90
24103;DHT22;12278;53.058;9.028;2023-02-16T12:43:34;9.00;99.90
24103;DHT22;12278;53.058;9.028;2023-02-16T12:47:43;8.90;99.90
24103;DHT22;12278;53.058;9.028;2023-02-16T12:51:54;8.90;99.90
24103;DHT22;12278;53.058;9.028;2023-02-16T12:56:08;8.80;99.90
24103;DHT22;12278;53.058;9.028;2023-02-16T13:01:09;8.60;99.90
24103;DHT22;12278;53.058;9.028;2023-02-16T13:04:53;8.60;99.90
24103;DHT22;12278;53.058;9.028;2023-02-16T13:13:12;8.60;99.90
24103;DHT22;12278;53.058;9.028;2023-02-16T13:17:18;8.70;99.90
24103;DHT22;12278;53.058;9.028;2023-02-16T13:39:23;8.90;99.90
24103;DHT22;12278;53.058;9.028;2023-02-16T13:43:33;8.90;99.90
24103;DHT22;12278;53.058;9.028;2023-02-16T13:47:39;9.00;99.90
24103;DHT22;12278;53.058;9.028;2023-02-16T13:51:42;9.00;99.90
24103;DHT22;12278;53.058;9.028;2023-02-16T13:55:46;9.00;99.90
24103;DHT22;12278;53.058;9.028;2023-02-16T13:59:58;9.00;99.90
24103;DHT22;12278;53.058;9.028;2023-02-16T14:04:00;9.00;99.90
24103;DHT22;12278;53.058;9.028;2023-02-16T14:08:16;9.00;99.90
24103;DHT22;12278;53.058;9.028;2023-02-16T14:12:38;9.00;99.90
24103;DHT22;12278;53.058;9.028;2023-02-16T14:16:39;8.90;99.90
24103;DHT22;12278;53.058;9.028;2023-02-16T14:20:39;8.90;99.90
24103;DHT22;12278;53.058;9.028;2023-02-16T14:24:40;8.80;99.90
24103;DHT22;12278;53.058;9.028;2023-02-16T14:29:13;8.70;99.90
24103;DHT22;12278;53.058;9.028;2023-02-16T14:33:22;8.70;99.90
24103;DHT22;12278;53.058;9.028;2023-02-16T14:37:28;8.80;99.90
24103;DHT22;12278;53.058;9.028;2023-02-16T14:41:33;8.70;99.90
24103;DHT22;12278;53.058;9.028;2023-02-16T14:50:34;8.70;99.90
24103;DHT22;12278;53.058;9.028;2023-02-16T15:03:51;8.60;99.90
24103;DHT22;12278;53.058;9.028;2023-02-16T15:08:08;8.40;99.90
24103;DHT22;12278;53.058;9.028;2023-02-16T15:12:12;8.30;99.90
24103;DHT22;12278;53.058;9.028;2023-02-16T15:16:22;8.20;99.90
24103;DHT22;12278;53.058;9.028;2023-02-16T15:20:44;8.10;99.90
24103;DHT22;12278;53.058;9.028;2023-02-16T15:25:01;8.00;99.90
24103;DHT22;12278;53.058;9.028;2023-02-16T15:37:31;7.90;99.90
24103;DHT22;12278;53.058;9.028;2023-02-16T15:41:42;7.90;99.90
24103;DHT22;12278;53.058;9.028;2023-02-16T15:45:48;7.90;99.90
24103;DHT22;12278;53.058;9.028;2023-02-16T15:49:49;7.90;99.90
24103;DHT22;12278;53.058;9.028;2023-02-16T15:54:02;7.90;99.90
24103;DHT22;12278;53.058;9.028;2023-02-16T15:58:04;7.90;99.90
24103;DHT22;12278;53.058;9.028;2023-02-16T16:02:18;7.90;99.90
24103;DHT22;12278;53.058;9.028;2023-02-16T16:06:19;7.90;99.90
24103;DHT22;12278;53.058;9.028;2023-02-16T16:10:21;7.90;99.90
24103;DHT22;12278;53.058;9.028;2023-02-16T16:14:24;7.90;99.90
24103;DHT22;12278;53.058;9.028;2023-02-16T16:22:39;7.90;99.90
24103;DHT22;12278;53.058;9.028;2023-02-16T16:26:54;7.90;99.90
24103;DHT22;12278;53.058;9.028;2023-02-16T16:31:13;7.90;99.90
24103;DHT22;12278;53.058;9.028;2023-02-16T16:35:19;7.90;99.90
24103;DHT22;12278;53.058;9.028;2023-02-16T16:39:27;7.90;99.90
24103;DHT22;12278;53.058;9.028;2023-02-16T16:43:30;7.90;99.90
24103;DHT22;12278;53.058;9.028;2023-02-16T16:47:35;7.90;99.90
24103;DHT22;12278;53.058;9.028;2023-02-16T16:51:38;7.90;99.90
24103;DHT22;12278;53.058;9.028;2023-02-16T16:55:39;7.90;99.90
24103;DHT22;12278;53.058;9.028;2023-02-16T16:59:40;7.90;99.90
24103;DHT22;12278;53.058;9.028;2023-02-16T17:03:40;7.90;99.90
24103;DHT22;12278;53.058;9.028;2023-02-16T17:07:50;7.90;99.90
24103;DHT22;12278;53.058;9.028;2023-02-16T17:11:51;7.90;99.90
24103;DHT22;12278;53.058;9.028;2023-02-16T17:16:10;7.90;99.90
24103;DHT22;12278;53.058;9.028;2023-02-16T17:20:17;7.90;99.90
24103;DHT22;12278;53.058;9.028;2023-02-16T17:24:17;7.80;99.90
24103;DHT22;12278;53.058;9.028;2023-02-16T17:28:20;7.80;99.90
24103;DHT22;12278;53.058;9.028;2023-02-16T17:32:20;7.80;99.90
24103;DHT22;12278;53.058;9.028;2023-02-16T17:36:25;7.90;99.90
24103;DHT22;12278;53.058;9.028;2023-02-16T17:40:25;7.80;99.90
24103;DHT22;12278;53.058;9.028;2023-02-16T17:44:26;7.90;99.90
24103;DHT22;12278;53.058;9.028;2023-02-16T17:48:28;7.90;99.90
24103;DHT22;12278;53.058;9.028;2023-02-16T17:52:29;7.80;99.90
24103;DHT22;12278;53.058;9.028;2023-02-16T17:56:31;7.90;99.90
24103;DHT22;12278;53.058;9.028;2023-02-16T18:00:34;7.80;99.90
24103;DHT22;12278;53.058;9.028;2023-02-16T18:04:35;7.90;99.90
24103;DHT22;12278;53.058;9.028;2023-02-16T18:08:40;7.90;99.90
24103;DHT22;12278;53.058;9.028;2023-02-16T18:12:41;7.90;99.90
24103;DHT22;12278;53.058;9.028;2023-02-16T18:16:41;7.90;99.90
24103;DHT22;12278;53.058;9.028;2023-02-16T18:20:42;7.90;99.90
24103;DHT22;12278;53.058;9.028;2023-02-16T18:24:45;8.00;99.90
24103;DHT22;12278;53.058;9.028;2023-02-16T18:28:45;7.90;99.90
24103;DHT22;12278;53.058;9.028;2023-02-16T18:32:46;8.00;99.90
24103;DHT22;12278;53.058;9.028;2023-02-16T18:36:56;7.90;99.90
24103;DHT22;12278;53.058;9.028;2023-02-16T18:40:57;7.90;99.90
24103;DHT22;12278;53.058;9.028;2023-02-16T18:44:57;7.90;99.90
24103;DHT22;12278;53.058;9.028;2023-02-16T18:49:01;8.00;99.90
24103;DHT22;12278;53.058;9.028;2023-02-16T18:53:02;8.00;99.90
24103;DHT22;12278;53.058;9.028;2023-02-16T18:57:02;8.00;99.90
24103;DHT22;12278;53.058;9.028;2023-02-16T19:01:13;8.00;99.90
24103;DHT22;12278;53.058;9.028;2023-02-16T19:05:13;8.00;99.90
24103;DHT22;12278;53.058;9.028;2023-02-16T19:09:19;8.00;99.90
24103;DHT22;12278;53.058;9.028;2023-02-16T19:13:19;8.00;99.90
24103;DHT22;12278;53.058;9.028;2023-02-16T19:17:20;7.90;99.90
24103;DHT22;12278;53.058;9.028;2023-02-16T19:21:20;8.00;99.90
24103;DHT22;12278;53.058;9.028;2023-02-16T19:25:21;8.00;99.90
24103;DHT22;12278;53.058;9.028;2023-02-16T19:29:23;8.00;99.90
24103;DHT22;12278;53.058;9.028;2023-02-16T19:33:23;8.10;99.90
24103;DHT22;12278;53.058;9.028;2023-02-16T19:37:24;8.10;99.90
24103;DHT22;12278;53.058;9.028;2023-02-16T19:41:33;8.10;99.90
24103;DHT22;12278;53.058;9.028;2023-02-16T19:45:36;8.00;99.90
24103;DHT22;12278;53.058;9.028;2023-02-16T19:49:40;8.00;99.90
24103;DHT22;12278;53.058;9.028;2023-02-16T19:53:44;7.90;99.90
24103;DHT22;12278;53.058;9.028;2023-02-16T19:57:44;7.90;99.90
24103;DHT22;12278;53.058;9.028;2023-02-16T20:01:45;8.00;99.90
24103;DHT22;12278;53.058;9.028;2023-02-16T20:05:45;7.90;99.90
24103;DHT22;12278;53.058;9.028;2023-02-16T20:09:46;8.00;99.90
24103;DHT22;12278;53.058;9.028;2023-02-16T20:13:47;8.00;99.90
24103;DHT22;12278;53.058;9.028;2023-02-16T20:17:47;8.00;99.90
24103;DHT22;12278;53.058;9.028;2023-02-16T20:21:48;7.90;99.90
24103;DHT22;12278;53.058;9.028;2023-02-16T20:25:48;8.00;99.90
24103;DHT22;12278;53.058;9.028;2023-02-16T20:29:49;8.00;99.90
24103;DHT22;12278;53.058;9.028;2023-02-16T20:33:50;8.00;99.90
24103;DHT22;12278;53.058;9.028;2023-02-16T20:37:51;8.00;99.90
24103;DHT22;12278;53.058;9.028;2023-02-16T20:41:53;8.00;99.90
24103;DHT22;12278;53.058;9.028;2023-02-16T20:45:55;7.90;99.90
24103;DHT22;12278;53.058;9.028;2023-02-16T20:49:56;7.90;99.90
24103;DHT22;12278;53.058;9.028;2023-02-16T20:53:59;7.90;99.90
24103;DHT22;12278;53.058;9.028;2023-02-16T20:58:01;7.90;99.90
24103;DHT22;12278;53.058;9.028;2023-02-16T21:02:01;7.90;99.90
24103;DHT22;12278;53.058;9.028;2023-02-16T21:06:11;8.00;99.90
24103;DHT22;12278;53.058;9.028;2023-02-16T21:10:18;7.90;99.90
24103;DHT22;12278;53.058;9.028;2023-02-16T21:14:20;8.00;99.90
24103;DHT22;12278;53.058;9.028;2023-02-16T21:18:21;8.00;99.90
24103;DHT22;12278;53.058;9.028;2023-02-16T21:22:26;8.00;99.90
24103;DHT22;12278;53.058;9.028;2023-02-16T21:26:28;8.00;99.90
24103;DHT22;12278;53.058;9.028;2023-02-16T21:30:34;8.10;99.90
24103;DHT22;12278;53.058;9.028;2023-02-16T21:34:35;8.10;99.90
24103;DHT22;12278;53.058;9.028;2023-02-16T21:38:37;8.10;99.90
24103;DHT22;12278;53.058;9.028;2023-02-16T21:42:40;8.10;99.90
24103;DHT22;12278;53.058;9.028;2023-02-16T21:46:43;8.10;99.90
24103;DHT22;12278;53.058;9.028;2023-02-16T21:50:43;8.10;99.90
24103;DHT22;12278;53.058;9.028;2023-02-16T21:54:47;8.10;99.90
24103;DHT22;12278;53.058;9.028;2023-02-16T21:59:09;8.20;99.90
24103;DHT22;12278;53.058;9.028;2023-02-16T22:03:11;8.20;99.90
24103;DHT22;12278;53.058;9.028;2023-02-16T22:07:29;8.30;99.90
24103;DHT22;12278;53.058;9.028;2023-02-16T22:11:30;8.30;99.90
24103;DHT22;12278;53.058;9.028;2023-02-16T22:15:31;8.40;99.90
24103;DHT22;12278;53.058;9.028;2023-02-16T22:19:34;8.40;99.90
24103;DHT22;12278;53.058;9.028;2023-02-16T22:23:52;8.40;99.90
24103;DHT22;12278;53.058;9.028;2023-02-16T22:27:53;8.50;99.90
24103;DHT22;12278;53.058;9.028;2023-02-16T22:31:54;8.50;99.90
24103;DHT22;12278;53.058;9.028;2023-02-16T22:35:56;8.50;99.90
24103;DHT22;12278;53.058;9.028;2023-02-16T22:39:56;8.60;99.90
24103;DHT22;12278;53.058;9.028;2023-02-16T22:43:57;8.60;99.90
24103;DHT22;12278;53.058;9.028;2023-02-16T22:48:01;8.70;99.90
24103;DHT22;12278;53.058;9.028;2023-02-16T22:52:01;8.70;99.90
24103;DHT22;12278;53.058;9.028;2023-02-16T22:56:13;8.70;99.90
24103;DHT22;12278;53.058;9.028;2023-02-16T23:00:16;8.80;99.90
24103;DHT22;12278;53.058;9.028;2023-02-16T23:04:17;8.80;99.90
24103;DHT22;12278;53.058;9.028;2023-02-16T23:08:24;8.80;99.90
24103;DHT22;12278;53.058;9.028;2023-02-16T23:12:25;8.80;99.90
24103;DHT22;12278;53.058;9.028;2023-02-16T23:16:26;8.80;99.90
24103;DHT22;12278;53.058;9.028;2023-02-16T23:20:27;8.90;99.90
24103;DHT22;12278;53.058;9.028;2023-02-16T23:24:28;8.80;99.90
24103;DHT22;12278;53.058;9.028;2023-02-16T23:28:30;8.90;99.90
24103;DHT22;12278;53.058;9.028;2023-02-16T23:32:30;8.80;99.90
24103;DHT22;12278;53.058;9.028;2023-02-16T23:36:32;8.90;99.90
24103;DHT22;12278;53.058;9.028;2023-02-16T23:40:34;8.90;99.90
24103;DHT22;12278;53.058;9.028;2023-02-16T23:44:34;8.90;99.90
24103;DHT22;12278;53.058;9.028;2023-02-16T23:48:35;9.00;99.90
24103;DHT22;12278;53.058;9.028;2023-02-16T23:52:36;8.90;99.90
24103;DHT22;12278;53.058;9.028;2023-02-16T23:56:45;8.90;99.90
